KBBB/BBB METAR and TAF weather

Enter ICAO airport designator
Station Type Date Time Source
KBBB METAR 2022/12/08 13:55 UTC NOAA

KBBB 081355Z AUTO 16007KT 10SM CLR M15/M17 A3030 RMK AO2


Station Type Date Time Source
KBBB Decoded METAR 2022/12/08 13:55 UTC NOAA

Benson Municipal, MN, United States (KBBB) 45-19N 095-39W
Dec 08, 2022 - 08:55 AM EST / 2022.12.08 1355 UTC
Wind: from the SSE (160 degrees) at 8 MPH (7 KT):0
Visibility: 10 mile(s):0
Sky conditions: clear
Temperature: 5 F (-15 C)
Windchill: -7 F (-22 C):2
Dew Point: 1 F (-17 C)
Relative Humidity: 84%
Pressure (altimeter): 30.3 in. Hg (1026 hPa)
ob: KBBB 081355Z AUTO 16007KT 10SM CLR M15/M17 A3030 RMK AO2
cycle: 14

Station Type Date Time Source
KBBB TAF UTC NOAA

Error!

Example: see airport list